Aviation Digital Data Service (ADDS)

Output produced by METARs form (0505 UTC 28 August 2014)
found at http://aviationweather.gov/adds/metars/
 
KAND 272330Z 2800/2824 02003KT P6SM FEW250 
     FM281000 26003KT P6SM FEW250